Wroughton, United Kingdom
Current Conditions -  °F | °C
As of 6:28 AM on Friday 19 Dec 2014 (Local Time) from EGVA Reporting Station
Broken Clouds Broken Clouds  
Wind Chill: 50°   Ceiling: 3300
Heat Index: 50°   Visibility: 6mi
Dew Point: 46°   Wind: 12mph
Humidity: 87%   Direction: 300°WNW
Pressure: 29.83"   Gusts: 18mph
Location:  51.52°N, 1.8°W
Report Text: EGVA 190628Z AUTO 30010G16KT 9999 FEW013 SCT026 BKN033 BKN110 10/08 A2983 RMK AO2
Loading
Personal Weather Stations






























Interactive Weather Map New forecast layout! Learn more

10-Day Weather Forecast

Advertisements
Track Severe Weather on mobile